createdAt,value
2022-12-18T00:01:43.365Z,12.48
2022-12-18T00:04:24.495Z,12.70
2022-12-18T00:06:57.876Z,12.65
2022-12-18T00:09:31.095Z,11.93
2022-12-18T00:14:48.335Z,12.73
2022-12-18T00:17:21.163Z,9.57
2022-12-18T00:19:53.700Z,14.25
2022-12-18T00:22:26.537Z,14.07
2022-12-18T00:24:59.060Z,15.07
2022-12-18T00:27:31.918Z,12.55
2022-12-18T00:30:04.883Z,13.98
2022-12-18T00:32:38.179Z,12.05
2022-12-18T00:35:10.732Z,11.60
2022-12-18T00:37:43.560Z,8.18
2022-12-18T00:40:16.082Z,15.27
2022-12-18T00:42:58.249Z,6.50
2022-12-18T00:45:32.549Z,11.60
2022-12-18T00:48:05.665Z,11.48
2022-12-18T00:50:38.270Z,16.27
2022-12-18T00:53:11.213Z,12.23
2022-12-18T00:55:44.452Z,14.65
2022-12-18T00:58:18.137Z,14.63
2022-12-18T01:00:50.731Z,16.23
2022-12-18T01:03:23.607Z,15.02
2022-12-18T01:05:56.124Z,14.38
2022-12-18T01:08:29.033Z,10.93
2022-12-18T01:11:02.098Z,12.38
2022-12-18T01:13:35.127Z,15.80
2022-12-18T01:16:08.485Z,16.20
2022-12-18T01:18:41.404Z,20.40
2022-12-18T01:21:17.074Z,17.73
2022-12-18T01:23:54.316Z,12.55
2022-12-18T01:26:30.452Z,20.25
2022-12-18T01:29:03.461Z,19.85
2022-12-18T01:31:36.060Z,16.38
2022-12-18T01:34:09.868Z,17.73
2022-12-18T01:36:42.371Z,18.98
2022-12-18T01:39:15.999Z,14.48
2022-12-18T01:42:04.239Z,19.65
2022-12-18T01:44:59.045Z,14.68
2022-12-18T01:48:12.897Z,11.73
2022-12-18T01:50:46.225Z,11.50
2022-12-18T01:53:22.893Z,15.77
2022-12-18T01:55:59.632Z,14.73
2022-12-18T01:58:40.566Z,14.98
2022-12-18T02:01:13.922Z,11.02
2022-12-18T02:03:46.811Z,12.50
2022-12-18T02:06:39.978Z,14.23
2022-12-18T02:09:24.603Z,14.93
2022-12-18T02:12:11.795Z,16.38
2022-12-18T02:15:18.668Z,13.05
2022-12-18T02:17:58.602Z,12.82
2022-12-18T02:20:38.254Z,11.98
2022-12-18T02:23:52.899Z,11.20
2022-12-18T02:26:35.320Z,15.52
2022-12-18T02:29:22.730Z,8.40
2022-12-18T02:31:59.536Z,15.75
2022-12-18T02:34:37.786Z,14.25
2022-12-18T02:37:14.953Z,14.13
2022-12-18T02:39:50.273Z,7.57
2022-12-18T02:42:23.373Z,13.07
2022-12-18T02:44:56.254Z,14.55
2022-12-18T02:47:33.645Z,13.48
2022-12-18T02:50:19.934Z,12.75
2022-12-18T02:53:00.900Z,12.82
2022-12-18T02:56:10.788Z,12.07
2022-12-18T02:58:46.196Z,14.10
2022-12-18T03:01:51.136Z,11.75
2022-12-18T03:04:40.453Z,10.27
2022-12-18T03:07:24.453Z,10.27
2022-12-18T03:09:58.892Z,12.18
2022-12-18T03:12:36.675Z,14.00
2022-12-18T03:15:21.976Z,12.05
2022-12-18T03:18:04.248Z,12.10
2022-12-18T03:20:39.928Z,13.52
2022-12-18T03:23:18.739Z,13.68
2022-12-18T03:25:55.426Z,12.43
2022-12-18T03:28:32.746Z,11.55
2022-12-18T03:31:08.587Z,11.88
2022-12-18T03:33:58.503Z,11.57
2022-12-18T03:36:31.016Z,12.80
2022-12-18T03:39:04.246Z,12.80
2022-12-18T03:41:47.101Z,12.07
2022-12-18T03:44:27.377Z,12.70
2022-12-18T03:46:59.856Z,11.57
2022-12-18T03:49:41.648Z,13.73
2022-12-18T03:52:27.452Z,11.88
2022-12-18T03:55:02.483Z,11.98
2022-12-18T03:57:35.848Z,13.63
2022-12-18T04:00:18.951Z,12.23
2022-12-18T04:02:57.087Z,13.18
2022-12-18T04:05:31.119Z,12.95
2022-12-18T04:08:04.131Z,12.60
2022-12-18T04:10:37.795Z,13.52
2022-12-18T04:13:10.722Z,12.82
2022-12-18T04:15:43.624Z,13.45
2022-12-18T04:18:16.158Z,12.85
2022-12-18T04:20:48.949Z,10.77
2022-12-18T04:23:21.441Z,11.90
2022-12-18T04:25:54.325Z,8.88
2022-12-18T04:28:26.902Z,11.48
2022-12-18T04:30:59.868Z,11.50
2022-12-18T04:33:32.734Z,10.85
2022-12-18T04:36:05.993Z,10.48
2022-12-18T04:38:38.521Z,11.05
2022-12-18T04:41:11.337Z,12.10
2022-12-18T04:43:43.877Z,11.98
2022-12-18T04:46:16.744Z,11.43
2022-12-18T04:48:49.479Z,10.90
2022-12-18T04:51:26.452Z,11.90
2022-12-18T04:53:59.442Z,11.48
2022-12-18T04:56:33.078Z,11.02
2022-12-18T04:59:05.914Z,11.95
2022-12-18T05:01:38.835Z,12.25
2022-12-18T05:04:11.448Z,13.10
2022-12-18T05:06:44.347Z,11.63
2022-12-18T05:09:17.011Z,11.73
2022-12-18T05:11:50.129Z,12.00
2022-12-18T05:14:22.629Z,11.98
2022-12-18T05:17:00.543Z,13.63
2022-12-18T05:19:33.528Z,13.20
2022-12-18T05:22:06.324Z,11.90
2022-12-18T05:24:38.814Z,12.05
2022-12-18T05:27:11.621Z,12.30
2022-12-18T05:29:44.148Z,12.43
2022-12-18T05:32:16.928Z,11.07
2022-12-18T05:34:49.403Z,13.00
2022-12-18T05:37:22.464Z,11.40
2022-12-18T05:39:54.972Z,10.82
2022-12-18T05:42:27.775Z,11.02
2022-12-18T05:45:00.311Z,11.27
2022-12-18T05:47:33.163Z,10.55
2022-12-18T05:50:06.366Z,13.73
2022-12-18T05:52:39.131Z,11.15
2022-12-18T05:55:11.655Z,11.50
2022-12-18T05:57:44.423Z,11.40
2022-12-18T06:00:17.436Z,10.15
2022-12-18T06:02:50.425Z,11.95
2022-12-18T06:05:23.092Z,10.40
2022-12-18T06:07:55.873Z,12.45
2022-12-18T06:10:28.527Z,12.13
2022-12-18T06:13:01.855Z,11.32
2022-12-18T06:15:37.026Z,10.70
2022-12-18T06:18:10.096Z,11.80
2022-12-18T06:20:42.653Z,10.40
2022-12-18T06:23:15.410Z,13.85
2022-12-18T06:25:47.895Z,12.32
2022-12-18T06:28:21.219Z,11.00
2022-12-18T06:30:54.082Z,10.85
2022-12-18T06:33:29.117Z,12.95
2022-12-18T06:36:09.411Z,11.25
2022-12-18T06:38:44.756Z,11.02
2022-12-18T06:41:20.576Z,11.23
2022-12-18T06:43:58.125Z,11.68
2022-12-18T06:46:33.236Z,12.23
2022-12-18T06:49:06.280Z,12.70
2022-12-18T06:51:39.162Z,13.57
2022-12-18T06:54:11.954Z,12.77
2022-12-18T06:56:46.892Z,13.93
2022-12-18T06:59:19.958Z,14.20
2022-12-18T07:01:52.668Z,11.40
2022-12-18T07:04:31.638Z,16.35
2022-12-18T07:07:04.156Z,12.07
2022-12-18T07:09:37.287Z,10.23
2022-12-18T07:12:10.839Z,12.65
2022-12-18T07:14:43.715Z,11.55
2022-12-18T07:17:16.262Z,13.05
2022-12-18T07:19:49.023Z,11.63
2022-12-18T07:22:21.556Z,12.25
2022-12-18T07:24:54.455Z,10.73
2022-12-18T07:27:27.043Z,12.93
2022-12-18T07:29:59.827Z,14.07
2022-12-18T07:32:32.363Z,13.15
2022-12-18T07:35:05.518Z,13.60
2022-12-18T07:37:38.083Z,14.35
2022-12-18T07:40:11.675Z,13.25
2022-12-18T07:42:44.217Z,15.30
2022-12-18T07:45:17.148Z,12.30
2022-12-18T07:47:49.634Z,13.45
2022-12-18T07:50:23.024Z,13.77
2022-12-18T07:52:55.571Z,13.13
2022-12-18T07:55:28.503Z,13.23
2022-12-18T07:58:03.687Z,12.88
2022-12-18T08:00:36.822Z,14.00
2022-12-18T08:03:09.340Z,14.65
2022-12-18T08:05:42.243Z,14.57
2022-12-18T08:08:14.807Z,13.65
2022-12-18T08:10:56.910Z,16.13
2022-12-18T08:13:29.587Z,13.75
2022-12-18T08:16:07.448Z,13.02
2022-12-18T08:18:39.926Z,13.90
2022-12-18T08:21:19.390Z,13.50
2022-12-18T08:23:55.832Z,17.55
2022-12-18T08:26:31.085Z,13.30
2022-12-18T08:29:03.762Z,13.77
2022-12-18T08:31:36.964Z,18.48
2022-12-18T08:34:10.025Z,14.55
2022-12-18T08:36:42.838Z,13.05
2022-12-18T08:39:15.321Z,14.43
2022-12-18T08:42:10.285Z,15.32
2022-12-18T08:44:43.137Z,13.35
2022-12-18T08:47:15.978Z,16.48
2022-12-18T08:49:48.530Z,15.75
2022-12-18T08:52:21.323Z,16.65
2022-12-18T08:54:53.798Z,14.57
2022-12-18T08:57:26.632Z,15.10
2022-12-18T08:59:59.331Z,15.88
2022-12-18T09:02:32.418Z,14.93
2022-12-18T09:05:05.415Z,15.18
2022-12-18T09:07:38.462Z,14.85
2022-12-18T09:10:10.953Z,14.57
2022-12-18T09:13:06.831Z,17.38
2022-12-18T09:18:28.008Z,14.90
2022-12-18T09:21:05.539Z,13.68
2022-12-18T09:23:39.510Z,15.82
2022-12-18T09:26:12.185Z,16.00
2022-12-18T09:28:45.442Z,17.15
2022-12-18T09:31:48.220Z,18.50
2022-12-18T09:34:18.866Z,16.58
2022-12-18T09:36:55.128Z,16.50
2022-12-18T09:39:30.997Z,15.83
2022-12-18T09:42:22.389Z,14.95
2022-12-18T09:45:04.867Z,12.75
2022-12-18T09:47:40.223Z,14.55
2022-12-18T09:50:33.076Z,14.82
2022-12-18T09:53:16.835Z,14.20
2022-12-18T09:55:59.364Z,12.60
2022-12-18T09:58:45.413Z,14.35
2022-12-18T10:01:24.188Z,13.73
2022-12-18T10:03:57.491Z,15.15
2022-12-18T10:06:36.722Z,13.73
2022-12-18T10:09:37.345Z,13.55
2022-12-18T10:12:36.684Z,13.27
2022-12-18T10:15:30.522Z,12.57
2022-12-18T10:18:22.020Z,13.63
2022-12-18T10:21:01.163Z,14.38
2022-12-18T10:23:44.935Z,14.32
2022-12-18T10:26:20.476Z,18.50
2022-12-18T10:28:56.361Z,17.17
2022-12-18T10:31:31.241Z,14.90
2022-12-18T10:34:04.110Z,17.45
2022-12-18T10:36:36.804Z,16.88
2022-12-18T10:39:24.779Z,16.92
2022-12-18T10:42:19.753Z,18.33
2022-12-18T10:45:06.747Z,20.67
2022-12-18T10:47:46.069Z,19.85
2022-12-18T10:51:09.601Z,18.98
2022-12-18T10:53:33.999Z,18.65
2022-12-18T10:56:07.816Z,19.52
2022-12-18T10:58:41.514Z,19.25
2022-12-18T11:01:17.500Z,19.67
2022-12-18T11:04:00.450Z,19.67
2022-12-18T11:06:35.143Z,18.15
2022-12-18T11:09:30.095Z,20.23
2022-12-18T11:12:13.829Z,21.30
2022-12-18T11:14:52.880Z,18.92
2022-12-18T11:17:35.867Z,20.52
2022-12-18T11:20:37.546Z,22.35
2022-12-18T11:23:14.727Z,23.02
2022-12-18T11:25:56.897Z,20.17
2022-12-18T11:29:09.171Z,18.25
2022-12-18T11:31:41.752Z,21.45
2022-12-18T11:34:30.261Z,21.25
2022-12-18T11:37:04.836Z,20.63
2022-12-18T11:39:48.176Z,21.08
2022-12-18T11:42:42.585Z,19.90
2022-12-18T11:45:15.418Z,18.25
2022-12-18T11:47:58.995Z,21.08
2022-12-18T11:50:37.950Z,19.35
2022-12-18T11:53:14.007Z,20.70
2022-12-18T11:56:00.018Z,18.42
2022-12-18T11:59:19.974Z,20.55
2022-12-18T12:02:18.419Z,17.50
2022-12-18T12:05:18.850Z,15.23
2022-12-18T12:08:11.897Z,16.65
2022-12-18T12:11:17.317Z,11.48
2022-12-18T12:14:14.220Z,14.55
2022-12-18T12:17:16.969Z,17.38
2022-12-18T12:20:04.711Z,14.98
2022-12-18T12:23:14.458Z,12.55
2022-12-18T12:26:08.743Z,12.40
2022-12-18T12:28:58.520Z,13.23
2022-12-18T12:32:16.663Z,13.23
2022-12-18T12:35:00.833Z,13.00
2022-12-18T12:37:35.402Z,14.50
2022-12-18T12:40:40.867Z,13.73
2022-12-18T12:43:15.927Z,13.32
2022-12-18T12:46:19.931Z,12.60
2022-12-18T12:49:05.630Z,11.43
2022-12-18T12:51:41.850Z,13.50
2022-12-18T12:54:22.387Z,12.50
2022-12-18T13:00:00.133Z,10.68
2022-12-18T13:03:22.177Z,14.23
2022-12-18T13:06:15.584Z,11.50
2022-12-18T13:09:00.361Z,11.85
2022-12-18T13:12:02.013Z,14.18
2022-12-18T13:14:36.313Z,12.85
2022-12-18T13:17:31.029Z,14.27
2022-12-18T13:20:15.654Z,15.80
2022-12-18T13:22:51.928Z,14.63
2022-12-18T13:25:37.193Z,14.93
2022-12-18T13:28:15.492Z,16.73
2022-12-18T13:30:53.750Z,16.48
2022-12-18T13:33:29.806Z,16.70
2022-12-18T13:36:24.368Z,17.27
2022-12-18T13:39:19.719Z,19.45
2022-12-18T13:42:34.787Z,18.00
2022-12-18T13:45:41.489Z,16.92
2022-12-18T13:48:21.704Z,17.70
2022-12-18T13:51:18.770Z,17.35
2022-12-18T13:54:07.142Z,16.67
2022-12-18T13:56:45.574Z,16.42
2022-12-18T13:59:23.883Z,13.38
2022-12-18T14:02:00.648Z,16.20
2022-12-18T14:04:36.736Z,17.30
2022-12-18T14:07:13.588Z,16.67
2022-12-18T14:09:52.286Z,15.73
2022-12-18T14:12:49.637Z,16.10
2022-12-18T14:15:29.652Z,14.77
2022-12-18T14:18:21.769Z,14.82
2022-12-18T14:20:58.420Z,13.38
2022-12-18T14:23:37.937Z,14.15
2022-12-18T14:26:29.010Z,15.10
2022-12-18T14:29:21.638Z,15.32
2022-12-18T14:32:11.781Z,12.65
2022-12-18T14:34:49.313Z,15.07
2022-12-18T14:37:24.728Z,14.35
2022-12-18T14:40:10.889Z,14.45
2022-12-18T14:42:44.124Z,14.35
2022-12-18T14:45:42.682Z,13.90
2022-12-18T14:48:23.018Z,15.35
2022-12-18T14:51:02.764Z,14.85
2022-12-18T14:53:42.638Z,15.00
2022-12-18T14:56:32.929Z,17.80
2022-12-18T14:59:23.805Z,17.25
2022-12-18T15:02:17.045Z,17.02
2022-12-18T15:05:20.740Z,15.27
2022-12-18T15:07:55.680Z,16.05
2022-12-18T15:10:34.318Z,17.10
2022-12-18T15:13:09.968Z,16.50
2022-12-18T15:15:43.432Z,16.15
2022-12-18T15:18:49.054Z,14.20
2022-12-18T15:21:22.121Z,14.63
2022-12-18T15:23:55.324Z,15.18
2022-12-18T15:26:38.073Z,16.00
2022-12-18T15:29:24.028Z,15.27
2022-12-18T15:32:04.945Z,13.70
2022-12-18T15:34:37.741Z,14.15
2022-12-18T15:37:10.388Z,15.88
2022-12-18T15:39:43.469Z,17.50
2022-12-18T15:42:34.808Z,14.73
2022-12-18T15:45:12.634Z,15.02
2022-12-18T15:47:45.384Z,15.70
2022-12-18T15:50:18.149Z,14.45
2022-12-18T15:52:53.404Z,14.23
2022-12-18T15:55:44.975Z,15.02
2022-12-18T15:58:17.478Z,15.60
2022-12-18T16:00:50.357Z,15.82
2022-12-18T16:03:23.110Z,13.90
2022-12-18T16:05:56.577Z,14.63
2022-12-18T16:08:31.282Z,15.13
2022-12-18T16:11:04.207Z,16.13
2022-12-18T16:13:36.783Z,16.98
2022-12-18T16:16:10.052Z,16.83
2022-12-18T16:18:42.646Z,15.25
2022-12-18T16:21:15.505Z,16.02
2022-12-18T16:23:48.019Z,17.23
2022-12-18T16:26:20.858Z,13.85
2022-12-18T16:28:54.202Z,16.58
2022-12-18T16:31:27.394Z,17.95
2022-12-18T16:34:24.980Z,16.15
2022-12-18T16:37:05.841Z,18.58
2022-12-18T16:39:39.897Z,16.42
2022-12-18T16:42:17.340Z,14.90
2022-12-18T16:44:50.917Z,17.35
2022-12-18T16:47:24.420Z,17.77
2022-12-18T16:49:56.926Z,17.42
2022-12-18T16:52:30.427Z,17.25
2022-12-18T16:55:03.592Z,15.52
2022-12-18T16:57:36.471Z,16.15
2022-12-18T17:00:09.629Z,15.77
2022-12-18T17:02:42.883Z,17.25
2022-12-18T17:05:15.634Z,18.13
2022-12-18T17:07:48.437Z,19.58
2022-12-18T17:10:21.020Z,21.02
2022-12-18T17:12:53.832Z,18.65
2022-12-18T17:15:26.384Z,16.73
2022-12-18T17:17:59.246Z,17.33
2022-12-18T17:20:31.826Z,16.20
2022-12-18T17:23:04.618Z,16.90
2022-12-18T17:25:40.459Z,18.02
2022-12-18T17:28:13.307Z,14.65
2022-12-18T17:30:45.858Z,16.25
2022-12-18T17:33:19.046Z,17.48
2022-12-18T17:35:51.788Z,16.92
2022-12-18T17:38:24.640Z,18.88
2022-12-18T17:41:04.672Z,17.65
2022-12-18T17:43:45.778Z,16.40
2022-12-18T17:46:18.716Z,15.88
2022-12-18T17:48:52.602Z,18.92
2022-12-18T17:51:25.952Z,17.60
2022-12-18T17:53:59.032Z,19.95
2022-12-18T17:56:31.911Z,18.17
2022-12-18T17:59:06.977Z,20.77
2022-12-18T18:01:44.487Z,19.75
2022-12-18T18:04:18.189Z,18.23
2022-12-18T18:06:50.880Z,20.52
2022-12-18T18:09:23.793Z,17.67
2022-12-18T18:12:14.914Z,18.48
2022-12-18T18:14:48.038Z,17.25
2022-12-18T18:17:20.770Z,16.77
2022-12-18T18:19:53.796Z,16.77
2022-12-18T18:22:27.089Z,16.77
2022-12-18T18:25:02.310Z,16.63
2022-12-18T18:27:38.513Z,14.50
2022-12-18T18:30:12.180Z,18.48
